Time;durP1;ratioP1;P1;durP2;ratioP2;P2;SDS_P1;SDS_P2;PMS_P1;PMS_P2;Temp;Humidity;BMP_temperature;BMP_pressure;BME280_temperature;BME280_humidity;BME280_pressure;Samples;Min_cycle;Max_cycle;Signal;HPM_P1;HPM_P2
2022/01/07 00:00:16;;;;;;;17.27;5.23;;;;;;;;;;6189004;23;20000;-81
2022/01/07 00:02:45;;;;;;;8.63;2.57;;;;;;;;;;6188452;23;19997;-81
2022/01/07 00:05:11;;;;;;;7.27;2.73;;;;;;;;;;6187253;23;20001;-80
2022/01/07 00:07:37;;;;;;;8.30;2.90;;;;;;;;;;6189888;23;20437;-81
2022/01/07 00:10:03;;;;;;;11.90;2.70;;;;;;;;;;6187701;23;20390;-81
2022/01/07 00:12:28;;;;;;;4.43;2.00;;;;;;;;;;6189592;23;19990;-81
2022/01/07 00:14:53;;;;;;;5.67;2.10;;;;;;;;;;6191033;23;20292;-81
2022/01/07 00:17:18;;;;;;;4.60;2.23;;;;;;;;;;6189436;23;20008;-81
2022/01/07 00:19:44;;;;;;;6.47;2.40;;;;;;;;;;6191043;23;20001;-81
2022/01/07 00:22:09;;;;;;;8.23;2.67;;;;;;;;;;6186606;23;20338;-81
2022/01/07 00:24:34;;;;;;;5.67;2.30;;;;;;;;;;6189282;23;20020;-81
2022/01/07 00:26:59;;;;;;;7.50;2.50;;;;;;;;;;6191201;23;20008;-80
2022/01/07 00:29:24;;;;;;;10.00;2.93;;;;;;;;;;6196542;23;20001;-81
2022/01/07 00:31:50;;;;;;;6.40;1.80;;;;;;;;;;6195804;23;20004;-82
2022/01/07 00:34:15;;;;;;;8.43;2.20;;;;;;;;;;6194306;23;20504;-82
2022/01/07 00:36:40;;;;;;;11.97;2.70;;;;;;;;;;6191308;23;20084;-81
2022/01/07 00:39:05;;;;;;;5.20;1.93;;;;;;;;;;6191554;23;20004;-81
2022/01/07 00:41:31;;;;;;;7.30;2.30;;;;;;;;;;6193514;23;20000;-82
2022/01/07 00:43:56;;;;;;;6.13;2.27;;;;;;;;;;6193629;23;20072;-82
2022/01/07 00:46:21;;;;;;;6.97;2.20;;;;;;;;;;6190430;23;20049;-81
2022/01/07 00:48:47;;;;;;;6.27;2.00;;;;;;;;;;6187641;23;20008;-81
2022/01/07 00:51:13;;;;;;;5.50;2.20;;;;;;;;;;6187183;23;20001;-81
2022/01/07 00:53:38;;;;;;;7.77;2.27;;;;;;;;;;6188949;23;20063;-80
2022/01/07 00:56:03;;;;;;;7.10;1.87;;;;;;;;;;6188968;23;19997;-80
2022/01/07 00:58:28;;;;;;;6.43;2.07;;;;;;;;;;6189856;23;20434;-81
2022/01/07 01:00:54;;;;;;;9.00;2.30;;;;;;;;;;6187580;23;20033;-81
2022/01/07 01:03:19;;;;;;;5.77;2.03;;;;;;;;;;6189954;23;20028;-81
2022/01/07 01:05:45;;;;;;;5.40;2.37;;;;;;;;;;6189180;23;20001;-81
2022/01/07 01:08:11;;;;;;;4.73;1.73;;;;;;;;;;6190824;23;20068;-81
2022/01/07 01:10:36;;;;;;;4.83;2.07;;;;;;;;;;6191428;23;20005;-81
2022/01/07 01:13:01;;;;;;;6.17;2.10;;;;;;;;;;6191836;23;20049;-80
2022/01/07 01:15:27;;;;;;;5.57;2.10;;;;;;;;;;6190783;23;20466;-82
2022/01/07 01:17:53;;;;;;;8.20;2.40;;;;;;;;;;6193220;23;20076;-83
2022/01/07 01:20:18;;;;;;;7.57;2.30;;;;;;;;;;6195243;23;20064;-82
2022/01/07 01:22:44;;;;;;;6.20;1.97;;;;;;;;;;6197278;23;19993;-82
2022/01/07 01:25:10;;;;;;;7.53;2.13;;;;;;;;;;6192824;23;19999;-82
2022/01/07 01:27:35;;;;;;;9.97;2.40;;;;;;;;;;6192255;23;20466;-82
2022/01/07 01:30:03;;;;;;;6.00;2.00;;;;;;;;;;6193954;23;19993;-82
2022/01/07 01:32:28;;;;;;;9.90;2.07;;;;;;;;;;6189062;23;19990;-80
2022/01/07 01:34:53;;;;;;;6.77;2.10;;;;;;;;;;6188062;23;20508;-81
2022/01/07 01:37:18;;;;;;;7.53;2.10;;;;;;;;;;6186469;23;20027;-81
2022/01/07 01:39:43;;;;;;;7.03;2.23;;;;;;;;;;6188945;23;20494;-81
2022/01/07 01:42:09;;;;;;;7.77;2.47;;;;;;;;;;6190566;23;20426;-81
2022/01/07 01:44:34;;;;;;;5.47;2.10;;;;;;;;;;6189306;23;19992;-79
2022/01/07 01:46:59;;;;;;;6.20;2.33;;;;;;;;;;6188888;23;20001;-80
2022/01/07 01:49:27;;;;;;;8.13;2.07;;;;;;;;;;6189584;23;20468;-80
2022/01/07 01:51:52;;;;;;;7.40;2.17;;;;;;;;;;6189451;23;20012;-80
2022/01/07 01:54:18;;;;;;;7.00;1.90;;;;;;;;;;6188375;23;20211;-81
2022/01/07 01:56:43;;;;;;;8.80;2.50;;;;;;;;;;6186924;23;19993;-81
2022/01/07 01:59:08;;;;;;;6.73;2.03;;;;;;;;;;6189095;23;19997;-81
2022/01/07 02:01:34;;;;;;;5.30;2.00;;;;;;;;;;6191512;23;20450;-81
2022/01/07 02:03:59;;;;;;;8.40;2.33;;;;;;;;;;6193065;23;20071;-81
2022/01/07 02:06:25;;;;;;;5.73;2.17;;;;;;;;;;6192601;23;19997;-82
2022/01/07 02:08:51;;;;;;;7.57;2.47;;;;;;;;;;6191700;23;20001;-82
2022/01/07 02:11:16;;;;;;;10.03;2.63;;;;;;;;;;6191444;23;20004;-81
2022/01/07 02:13:41;;;;;;;9.47;3.17;;;;;;;;;;6190964;23;20027;-80
2022/01/07 02:16:07;;;;;;;10.27;2.70;;;;;;;;;;6192122;23;19993;-81
2022/01/07 02:18:32;;;;;;;5.87;2.30;;;;;;;;;;6191286;23;20044;-80
2022/01/07 02:20:57;;;;;;;10.97;3.30;;;;;;;;;;6192276;23;19997;-81
2022/01/07 02:23:22;;;;;;;8.10;2.53;;;;;;;;;;6190394;23;19993;-80
2022/01/07 02:25:48;;;;;;;11.30;3.27;;;;;;;;;;6191526;23;20422;-81
2022/01/07 02:28:14;;;;;;;5.88;2.65;;;;;;;;;;6191761;23;20001;-82
2022/01/07 02:30:39;;;;;;;6.17;2.30;;;;;;;;;;6192540;23;20017;-82
2022/01/07 02:33:04;;;;;;;7.37;2.60;;;;;;;;;;6193684;23;20007;-82
2022/01/07 02:35:32;;;;;;;11.50;2.70;;;;;;;;;;6175749;23;20014;-82
2022/01/07 02:37:58;;;;;;;12.13;3.43;;;;;;;;;;6149247;23;20001;-83
2022/01/07 02:40:27;;;;;;;12.33;3.37;;;;;;;;;;6152433;23;20066;-82
2022/01/07 02:42:52;;;;;;;6.95;2.70;;;;;;;;;;6151001;23;20009;-81
2022/01/07 02:45:18;;;;;;;8.57;3.03;;;;;;;;;;6147040;23;19997;-83
2022/01/07 02:47:54;;;;;;;10.70;2.33;;;;;;;;;;6145718;23;20009;-83
2022/01/07 02:50:22;;;;;;;11.83;2.13;;;;;;;;;;6148018;23;20001;-82
2022/01/07 02:52:51;;;;;;;6.70;2.42;;;;;;;;;;6148544;23;20029;-82
2022/01/07 02:55:16;;;;;;;;;;;;;;;;;;6148653;23;19998;-82
2022/01/07 02:57:41;;;;;;;9.83;2.60;;;;;;;;;;6149059;23;19901;-83
2022/01/07 03:00:07;;;;;;;10.60;2.43;;;;;;;;;;6148996;23;20002;-82
2022/01/07 03:02:33;;;;;;;10.67;2.50;;;;;;;;;;6147867;23;20025;-81
2022/01/07 03:04:58;;;;;;;5.30;2.27;;;;;;;;;;6146859;23;19989;-82
2022/01/07 03:07:23;;;;;;;8.07;2.40;;;;;;;;;;6147397;23;19994;-82
2022/01/07 03:09:49;;;;;;;12.23;2.67;;;;;;;;;;6148639;23;20022;-82
2022/01/07 03:12:14;;;;;;;4.03;2.17;;;;;;;;;;6149878;23;19994;-82
2022/01/07 03:14:40;;;;;;;6.77;2.27;;;;;;;;;;6147166;23;20008;-82
2022/01/07 03:17:05;;;;;;;9.00;1.83;;;;;;;;;;6141236;23;20427;-82
2022/01/07 03:19:30;;;;;;;6.73;2.33;;;;;;;;;;6146172;23;20030;-82
2022/01/07 03:21:56;;;;;;;7.37;2.43;;;;;;;;;;6149647;23;19997;-82
2022/01/07 03:24:21;;;;;;;8.07;2.50;;;;;;;;;;6153226;23;19990;-82
2022/01/07 03:26:46;;;;;;;9.03;2.90;;;;;;;;;;6151939;23;19998;-81
2022/01/07 03:29:25;;;;;;;6.53;2.70;;;;;;;;;;5149316;27;20455;-82
2022/01/07 03:31:50;;;;;;;12.20;2.33;;;;;;;;;;5123852;28;20034;-81
2022/01/07 03:34:15;;;;;;;9.70;2.57;;;;;;;;;;5142872;28;20160;-82
2022/01/07 03:36:41;;;;;;;9.20;2.10;;;;;;;;;;5139550;28;20482;-82
2022/01/07 03:39:07;;;;;;;6.37;2.77;;;;;;;;;;5138460;28;20583;-81
2022/01/07 03:41:33;;;;;;;7.73;2.57;;;;;;;;;;5140430;28;20016;-81
2022/01/07 03:43:58;;;;;;;8.47;2.47;;;;;;;;;;5129640;28;20027;-82
2022/01/07 03:46:23;;;;;;;6.63;2.60;;;;;;;;;;5144639;28;20045;-82
2022/01/07 03:48:48;;;;;;;8.90;2.97;;;;;;;;;;5147510;28;20022;-82
2022/01/07 03:51:14;;;;;;;7.23;2.80;;;;;;;;;;5127679;28;20018;-82
2022/01/07 03:53:39;;;;;;;14.27;3.00;;;;;;;;;;5132266;28;20043;-83
2022/01/07 03:56:05;;;;;;;8.40;2.93;;;;;;;;;;5149501;28;20069;-82
2022/01/07 03:58:30;;;;;;;11.00;2.63;;;;;;;;;;5148475;28;20162;-83
2022/01/07 04:00:55;;;;;;;9.60;3.40;;;;;;;;;;5147167;28;20476;-82
2022/01/07 04:03:20;;;;;;;7.13;2.53;;;;;;;;;;5147380;28;20022;-82
2022/01/07 04:05:46;;;;;;;11.67;2.50;;;;;;;;;;5128480;28;20027;-82
2022/01/07 04:08:11;;;;;;;14.30;2.50;;;;;;;;;;5146494;28;20016;-82
2022/01/07 04:10:37;;;;;;;7.07;3.03;;;;;;;;;;5128872;28;20019;-81
2022/01/07 04:13:03;;;;;;;10.80;2.90;;;;;;;;;;5140973;28;20011;-82
2022/01/07 04:15:28;;;;;;;7.37;2.53;;;;;;;;;;5140100;28;20033;-82
2022/01/07 04:17:54;;;;;;;11.80;2.60;;;;;;;;;;5135678;28;20027;-80
2022/01/07 04:20:20;;;;;;;8.20;3.17;;;;;;;;;;5135841;28;20050;-81
2022/01/07 04:22:46;;;;;;;11.50;2.83;;;;;;;;;;5138261;28;20030;-82
2022/01/07 04:25:13;;;;;;;11.63;2.70;;;;;;;;;;5137164;28;20019;-81
2022/01/07 04:27:38;;;;;;;12.33;3.47;;;;;;;;;;5142153;28;20072;-82
2022/01/07 04:30:04;;;;;;;8.17;2.93;;;;;;;;;;5142245;28;20019;-82
2022/01/07 04:32:29;;;;;;;12.73;3.23;;;;;;;;;;5141447;28;20019;-82
2022/01/07 04:34:54;;;;;;;11.30;2.70;;;;;;;;;;5124408;28;20045;-82
2022/01/07 04:37:19;;;;;;;11.57;2.33;;;;;;;;;;5140254;28;20027;-82
2022/01/07 04:39:45;;;;;;;8.02;2.53;;;;;;;;;;5132705;28;20020;-80
2022/01/07 04:42:10;;;;;;;13.77;3.35;;;;;;;;;;5107452;28;20079;-80
2022/01/07 04:44:40;;;;;;;12.87;2.97;;;;;;;;;;5126536;28;20490;-81
2022/01/07 04:47:05;;;;;;;9.40;2.83;;;;;;;;;;5125500;28;20015;-81
2022/01/07 04:49:30;;;;;;;9.43;2.50;;;;;;;;;;5125855;28;20023;-83
2022/01/07 04:51:56;;;;;;;8.73;2.47;;;;;;;;;;5134779;28;20124;-83
2022/01/07 04:54:21;;;;;;;11.13;3.00;;;;;;;;;;5119882;28;20091;-83
2022/01/07 04:56:46;;;;;;;11.67;2.80;;;;;;;;;;5120757;28;20016;-82
2022/01/07 04:59:12;;;;;;;11.33;2.80;;;;;;;;;;5138597;28;20027;-82
2022/01/07 05:01:37;;;;;;;9.03;2.57;;;;;;;;;;5122718;28;20015;-83
2022/01/07 05:04:03;;;;;;;5.87;2.63;;;;;;;;;;5139412;28;20031;-82
2022/01/07 05:09:06;;;;;;;9.20;3.13;;;;;;;;;;5138751;28;20015;-83
2022/01/07 05:11:31;;;;;;;11.53;3.10;;;;;;;;;;5138459;28;20018;-82
2022/01/07 05:13:57;;;;;;;7.87;2.47;;;;;;;;;;5136138;28;20016;-83
2022/01/07 05:16:24;;;;;;;9.03;2.83;;;;;;;;;;5135532;28;20037;-82
2022/01/07 05:18:49;;;;;;;8.60;2.83;;;;;;;;;;5131114;28;20099;-82
2022/01/07 05:21:14;;;;;;;14.63;3.27;;;;;;;;;;5125021;28;20035;-81
2022/01/07 05:23:40;;;;;;;7.20;2.80;;;;;;;;;;5124392;28;20102;-80
2022/01/07 05:26:07;;;;;;;8.15;2.83;;;;;;;;;;5103052;28;20055;-81
2022/01/07 05:28:32;;;;;;;7.90;2.90;;;;;;;;;;5122385;28;20027;-81
2022/01/07 05:30:57;;;;;;;9.75;2.60;;;;;;;;;;5124234;28;20076;-82
2022/01/07 05:33:22;;;;;;;10.23;2.95;;;;;;;;;;5126268;28;20093;-81
2022/01/07 05:35:48;;;;;;;10.55;2.92;;;;;;;;;;5128841;28;20020;-82
2022/01/07 05:38:13;;;;;;;8.15;2.42;;;;;;;;;;5112892;28;20443;-83
2022/01/07 05:40:38;;;;;;;9.47;2.93;;;;;;;;;;5130793;28;20022;-82
2022/01/07 05:43:04;;;;;;;12.13;2.90;;;;;;;;;;5130735;28;20026;-83
2022/01/07 05:45:29;;;;;;;8.52;2.83;;;;;;;;;;5116407;28;20012;-82
2022/01/07 05:47:55;;;;;;;8.63;3.00;;;;;;;;;;5135937;28;20027;-83
2022/01/07 05:50:21;;;;;;;9.80;2.97;;;;;;;;;;5118005;28;20016;-83
2022/01/07 05:52:50;;;;;;;8.23;3.20;;;;;;;;;;5133093;28;20098;-83
2022/01/07 05:55:15;;;;;;;4.72;1.88;;;;;;;;;;5117186;28;20035;-83
2022/01/07 05:57:40;;;;;;;6.20;1.97;;;;;;;;;;5116160;28;20049;-82
2022/01/07 06:00:06;;;;;;;8.87;2.77;;;;;;;;;;5112556;28;20082;-82
2022/01/07 06:02:32;;;;;;;11.13;3.00;;;;;;;;;;5117360;28;20028;-82
2022/01/07 06:04:57;;;;;;;7.97;2.53;;;;;;;;;;5137273;28;20042;-82
2022/01/07 06:07:23;;;;;;;6.47;2.37;;;;;;;;;;5122253;28;20054;-83
2022/01/07 06:09:48;;;;;;;14.80;4.23;;;;;;;;;;5115730;28;20016;-82
2022/01/07 06:12:13;;;;;;;13.47;3.10;;;;;;;;;;5135094;28;20012;-83
2022/01/07 06:14:39;;;;;;;12.47;4.07;;;;;;;;;;5135475;28;20073;-82
2022/01/07 06:17:10;;;;;;;13.60;3.50;;;;;;;;;;5136270;28;20008;-82
2022/01/07 06:19:35;;;;;;;13.90;3.53;;;;;;;;;;5137299;28;20004;-84
2022/01/07 06:22:01;;;;;;;13.57;3.03;;;;;;;;;;5116352;28;20079;-84
2022/01/07 06:24:26;;;;;;;12.37;3.93;;;;;;;;;;5133758;28;20022;-83
2022/01/07 06:26:51;;;;;;;10.00;4.07;;;;;;;;;;5135196;28;20020;-83
2022/01/07 06:29:17;;;;;;;13.20;3.50;;;;;;;;;;5135573;28;20030;-82
2022/01/07 06:31:42;;;;;;;9.77;3.07;;;;;;;;;;5113042;28;20019;-83
2022/01/07 06:34:07;;;;;;;11.70;3.80;;;;;;;;;;5131005;28;20079;-82
2022/01/07 06:36:33;;;;;;;11.88;3.85;;;;;;;;;;5130632;28;20071;-81
2022/01/07 06:38:58;;;;;;;14.53;4.63;;;;;;;;;;5130011;28;20020;-82
2022/01/07 06:41:23;;;;;;;12.05;4.18;;;;;;;;;;5130969;28;20035;-83
2022/01/07 06:43:49;;;;;;;9.68;3.35;;;;;;;;;;5131346;28;20066;-82
2022/01/07 06:46:14;;;;;;;11.73;4.47;;;;;;;;;;5130312;28;20016;-82
2022/01/07 06:48:41;;;;;;;10.23;3.65;;;;;;;;;;5130618;28;20012;-82
2022/01/07 06:51:06;;;;;;;11.97;3.80;;;;;;;;;;5112894;28;20065;-81
2022/01/07 06:53:31;;;;;;;9.03;4.17;;;;;;;;;;5132252;28;20008;-81
2022/01/07 06:55:57;;;;;;;14.63;4.35;;;;;;;;;;5131524;28;20227;-83
2022/01/07 06:58:23;;;;;;;13.37;3.80;;;;;;;;;;5132491;28;20022;-83
2022/01/07 07:00:48;;;;;;;14.23;3.97;;;;;;;;;;5132001;28;20076;-81
2022/01/07 07:03:13;;;;;;;10.27;3.60;;;;;;;;;;5108599;28;20036;-81
2022/01/07 07:05:39;;;;;;;13.33;4.63;;;;;;;;;;5108229;28;20024;-83
2022/01/07 07:08:04;;;;;;;9.35;3.35;;;;;;;;;;5112336;28;20027;-83
2022/01/07 07:10:32;;;;;;;11.75;3.35;;;;;;;;;;5115168;28;20015;-83
2022/01/07 07:12:58;;;;;;;17.90;3.95;;;;;;;;;;5114759;28;20041;-83
2022/01/07 07:15:23;;;;;;;12.30;3.10;;;;;;;;;;5114650;28;20024;-83
2022/01/07 07:17:49;;;;;;;13.68;3.33;;;;;;;;;;5130743;28;20011;-83
2022/01/07 07:20:14;;;;;;;14.35;3.45;;;;;;;;;;5131193;28;20053;-83
2022/01/07 07:22:39;;;;;;;11.30;3.30;;;;;;;;;;5132701;28;20037;-83
2022/01/07 07:25:05;;;;;;;13.00;3.60;;;;;;;;;;5130646;28;20016;-83
2022/01/07 07:27:31;;;;;;;14.50;3.60;;;;;;;;;;5114323;28;20061;-82
2022/01/07 07:29:56;;;;;;;11.68;3.60;;;;;;;;;;5131400;28;20010;-82
2022/01/07 07:32:26;;;;;;;11.27;3.67;;;;;;;;;;5129829;28;20027;-82
2022/01/07 07:35:01;;;;;;;11.70;3.70;;;;;;;;;;5129815;28;19996;-83
2022/01/07 07:37:27;;;;;;;12.53;3.73;;;;;;;;;;5130579;28;20015;-82
2022/01/07 07:39:52;;;;;;;10.52;3.65;;;;;;;;;;5129781;28;20034;-82
2022/01/07 07:42:18;;;;;;;9.52;3.20;;;;;;;;;;5127921;28;20466;-82
2022/01/07 07:44:43;;;;;;;12.18;4.10;;;;;;;;;;5124224;28;20016;-82
2022/01/07 07:47:08;;;;;;;12.52;3.88;;;;;;;;;;5127999;28;20042;-82
2022/01/07 07:49:37;;;;;;;19.95;4.40;;;;;;;;;;5129716;28;20031;-83
2022/01/07 07:52:03;;;;;;;7.82;3.13;;;;;;;;;;5103277;28;20026;-82
2022/01/07 07:54:28;;;;;;;12.75;3.75;;;;;;;;;;5107477;28;20020;-82
2022/01/07 07:56:57;;;;;;;12.50;3.28;;;;;;;;;;5127066;28;20019;-82
2022/01/07 07:59:22;;;;;;;10.10;3.47;;;;;;;;;;5123727;28;20016;-81
2022/01/07 08:01:47;;;;;;;16.38;3.67;;;;;;;;;;5124953;28;20034;-80
2022/01/07 08:04:13;;;;;;;11.20;4.03;;;;;;;;;;5105699;28;20049;-79
2022/01/07 08:06:38;;;;;;;9.10;3.72;;;;;;;;;;5119238;28;20060;-81
2022/01/07 08:09:03;;;;;;;14.98;4.00;;;;;;;;;;5117922;28;20098;-80
2022/01/07 08:11:32;;;;;;;11.75;4.13;;;;;;;;;;5122600;28;20390;-80
2022/01/07 08:16:42;;;;;;;10.30;4.13;;;;;;;;;;5120575;28;20019;-80
2022/01/07 08:19:07;;;;;;;12.23;4.07;;;;;;;;;;5119354;28;20016;-80
2022/01/07 08:21:32;;;;;;;20.98;7.05;;;;;;;;;;5118993;28;20016;-81
2022/01/07 08:23:59;;;;;;;13.00;3.90;;;;;;;;;;5118925;28;20031;-78
2022/01/07 08:26:25;;;;;;;10.43;4.10;;;;;;;;;;5119969;28;20027;-79
2022/01/07 08:28:58;;;;;;;15.05;4.90;;;;;;;;;;5102003;28;20047;-81
2022/01/07 08:36:41;;;;;;;14.65;3.45;;;;;;;;;;5122432;28;20019;-79
2022/01/07 08:39:07;;;;;;;9.35;3.63;;;;;;;;;;5115619;28;20020;-80
2022/01/07 08:41:33;;;;;;;10.23;3.75;;;;;;;;;;5095103;28;20478;-79
2022/01/07 08:43:59;;;;;;;12.68;3.70;;;;;;;;;;5107105;28;20027;-83
2022/01/07 08:46:24;;;;;;;13.80;4.72;;;;;;;;;;5106918;28;20024;-82
2022/01/07 08:48:53;;;;;;;13.73;4.03;;;;;;;;;;5101651;28;20015;-86
2022/01/07 08:51:31;;;;;;;13.80;4.32;;;;;;;;;;5679830;22;20103;-88
2022/01/07 09:04:24;;;;;;;13.75;4.00;;;;;;;;;;5721391;22;20285;-82
2022/01/07 09:06:49;;;;;;;;;;;;;;;;;;5083349;28;20020;-83
2022/01/07 09:09:15;;;;;;;14.25;4.35;;;;;;;;;;5079206;28;19916;-81
2022/01/07 09:11:41;;;;;;;11.18;4.60;;;;;;;;;;5146232;22;20075;-83
2022/01/07 09:14:29;;;;;;;16.23;5.35;;;;;;;;;;5079242;28;20013;-84
2022/01/07 09:17:12;;;;;;;13.50;5.00;;;;;;;;;;5077510;28;20075;-84
2022/01/07 09:19:38;;;;;;;15.55;4.95;;;;;;;;;;5077467;28;20005;-82
2022/01/07 09:22:10;;;;;;;20.75;6.20;;;;;;;;;;5077267;28;20013;-83
2022/01/07 09:24:47;;;;;;;22.30;6.75;;;;;;;;;;5077819;28;20025;-84
2022/01/07 09:32:27;;;;;;;23.27;6.75;;;;;;;;;;5743582;22;20049;-83
2022/01/07 09:34:54;;;;;;;14.73;5.13;;;;;;;;;;5434470;22;20044;-84
2022/01/07 09:37:25;;;;;;;10.45;4.30;;;;;;;;;;5078803;28;20028;-84
2022/01/07 09:39:51;;;;;;;11.80;3.88;;;;;;;;;;5068728;28;20024;-83
2022/01/07 09:42:19;;;;;;;11.00;4.65;;;;;;;;;;5076513;28;20020;-84
2022/01/07 09:44:54;;;;;;;10.90;4.32;;;;;;;;;;5119967;22;20052;-82
2022/01/07 09:47:19;;;;;;;13.20;3.65;;;;;;;;;;5098705;28;20207;-83
2022/01/07 09:49:45;;;;;;;15.80;4.70;;;;;;;;;;5079955;28;20000;-82
2022/01/07 09:52:10;;;;;;;8.65;3.40;;;;;;;;;;5081107;28;19997;-84
2022/01/07 09:54:37;;;;;;;11.27;3.65;;;;;;;;;;5081030;28;20036;-80
2022/01/07 09:57:04;;;;;;;11.93;3.72;;;;;;;;;;5214272;22;20056;-83
2022/01/07 09:59:30;;;;;;;13.18;3.55;;;;;;;;;;5081410;28;20058;-83
2022/01/07 10:01:59;;;;;;;9.40;3.63;;;;;;;;;;5098623;28;20465;-83
2022/01/07 10:04:28;;;;;;;18.15;4.00;;;;;;;;;;5098021;28;20016;-83
2022/01/07 10:07:16;;;;;;;23.25;4.63;;;;;;;;;;5080671;28;20003;-84
2022/01/07 10:09:42;;;;;;;;;;;;;;;;;;5097111;28;20029;-83
2022/01/07 10:12:07;;;;;;;12.40;4.10;;;;;;;;;;5079946;28;19911;-83
2022/01/07 10:14:42;;;;;;;11.38;3.65;;;;;;;;;;5095967;28;20027;-82
2022/01/07 10:17:07;;;;;;;15.63;5.22;;;;;;;;;;5087802;28;20005;-83
2022/01/07 10:19:33;;;;;;;18.92;6.72;;;;;;;;;;5076348;28;20100;-83
2022/01/07 10:21:59;;;;;;;19.55;6.13;;;;;;;;;;5064863;28;20036;-83
2022/01/07 10:24:24;;;;;;;14.48;4.65;;;;;;;;;;5096856;28;20020;-84
2022/01/07 10:27:12;;;;;;;15.90;3.95;;;;;;;;;;5077966;28;20487;-83
2022/01/07 10:29:38;;;;;;;14.63;3.85;;;;;;;;;;5079602;28;20016;-83
2022/01/07 10:32:21;;;;;;;9.82;3.63;;;;;;;;;;5078640;28;20076;-83
2022/01/07 10:35:07;;;;;;;15.13;4.22;;;;;;;;;;5093372;28;20035;-83
2022/01/07 10:37:55;;;;;;;9.65;3.83;;;;;;;;;;5077921;28;20020;-83
2022/01/07 10:40:29;;;;;;;16.38;4.53;;;;;;;;;;5091968;28;20016;-82
2022/01/07 10:43:06;;;;;;;10.90;3.28;;;;;;;;;;5091909;28;20038;-83
2022/01/07 10:45:32;;;;;;;14.48;4.20;;;;;;;;;;5077426;28;20017;-83
2022/01/07 10:47:58;;;;;;;15.57;3.63;;;;;;;;;;5090055;28;20048;-83
2022/01/07 10:50:24;;;;;;;20.13;3.90;;;;;;;;;;5096893;28;20001;-84
2022/01/07 10:52:53;;;;;;;11.77;3.10;;;;;;;;;;5086078;28;20016;-84
2022/01/07 10:55:21;;;;;;;8.07;3.22;;;;;;;;;;5089063;28;20023;-83
2022/01/07 11:26:09;;;;;;;13.07;4.03;;;;;;;;;;6134287;22;20019;-84
2022/01/07 11:33:48;;;;;;;9.18;3.38;;;;;;;;;;5283958;22;20037;-88
2022/01/07 11:59:30;;;;;;;10.05;3.53;;;;;;;;;;5722648;22;20037;-85
2022/01/07 12:01:57;;;;;;;12.18;2.78;;;;;;;;;;5063817;28;20009;-86
2022/01/07 12:04:27;;;;;;;7.10;3.00;;;;;;;;;;5679825;22;20051;-82
2022/01/07 12:06:53;;;;;;;10.07;3.70;;;;;;;;;;5056048;28;20270;-83
2022/01/07 12:09:25;;;;;;;11.18;3.15;;;;;;;;;;5056914;28;20029;-82
2022/01/07 12:11:52;;;;;;;7.00;3.50;;;;;;;;;;5057323;28;20032;-83
2022/01/07 12:14:41;;;;;;;8.52;3.38;;;;;;;;;;5060166;28;20030;-83
2022/01/07 12:22:27;;;;;;;;;;;;;;;;;;;;;
2022/01/07 12:25:04;;;;;;;7.13;3.03;;;;;;;;;;5080002;28;20078;-85
2022/01/07 12:27:31;;;;;;;9.75;3.75;;;;;;;;;;5080652;28;20077;-85
2022/01/07 12:29:59;;;;;;;8.93;2.97;;;;;;;;;;5079723;28;20046;-84
2022/01/07 12:32:34;;;;;;;5.60;2.50;;;;;;;;;;5062958;28;20028;-85
2022/01/07 12:35:03;;;;;;;8.95;2.50;;;;;;;;;;5063578;28;20010;-85
2022/01/07 12:37:38;;;;;;;4.45;2.20;;;;;;;;;;5063527;28;20021;-83
2022/01/07 12:40:06;;;;;;;7.55;2.38;;;;;;;;;;5063329;28;20092;-84
2022/01/07 12:42:38;;;;;;;6.38;3.30;;;;;;;;;;5386919;22;20036;-85
2022/01/07 12:45:04;;;;;;;7.03;3.10;;;;;;;;;;5076153;22;20121;-83
2022/01/07 12:47:31;;;;;;;9.13;3.35;;;;;;;;;;5080919;28;20021;-83
2022/01/07 12:49:59;;;;;;;11.95;3.72;;;;;;;;;;5063977;28;20016;-84
2022/01/07 12:52:31;;;;;;;11.73;3.28;;;;;;;;;;5063227;28;20077;-83
2022/01/07 12:55:02;;;;;;;11.93;3.95;;;;;;;;;;5643120;22;20057;-85
2022/01/07 12:57:42;;;;;;;17.77;3.90;;;;;;;;;;5063381;28;20075;-84
2022/01/07 13:00:26;;;;;;;12.45;4.43;;;;;;;;;;5061434;28;20029;-86
2022/01/07 13:02:55;;;;;;;8.75;3.95;;;;;;;;;;5062708;28;20017;-84
2022/01/07 13:05:40;;;;;;;11.07;3.95;;;;;;;;;;5080443;28;20016;-86
2022/01/07 13:08:11;;;;;;;7.82;2.75;;;;;;;;;;5062551;28;20013;-85
2022/01/07 13:10:38;;;;;;;7.45;3.15;;;;;;;;;;5063272;28;20051;-83
2022/01/07 13:13:05;;;;;;;8.73;3.33;;;;;;;;;;5061789;28;20025;-84
2022/01/07 13:15:45;;;;;;;7.63;3.17;;;;;;;;;;5079889;28;20005;-85
2022/01/07 13:18:19;;;;;;;12.18;3.70;;;;;;;;;;5079707;28;20025;-84
2022/01/07 13:20:46;;;;;;;11.07;3.63;;;;;;;;;;5062334;28;20017;-84
2022/01/07 13:23:13;;;;;;;10.05;3.85;;;;;;;;;;5062610;28;20021;-84
2022/01/07 13:25:41;;;;;;;9.27;3.65;;;;;;;;;;5190873;22;20096;-85
2022/01/07 13:28:10;;;;;;;9.25;3.40;;;;;;;;;;5061559;28;20017;-84
2022/01/07 13:30:48;;;;;;;7.82;2.78;;;;;;;;;;5061810;28;20046;-84
2022/01/07 13:33:18;;;;;;;8.13;3.42;;;;;;;;;;5059777;28;20002;-84
2022/01/07 13:35:53;;;;;;;14.02;3.63;;;;;;;;;;5061540;28;20013;-84
2022/01/07 13:38:19;;;;;;;8.10;3.30;;;;;;;;;;5062378;28;20051;-85
2022/01/07 13:40:51;;;;;;;8.02;3.70;;;;;;;;;;5062274;28;20021;-83
2022/01/07 13:46:06;;;;;;;10.23;3.22;;;;;;;;;;5225349;22;20143;-84
2022/01/07 13:48:32;;;;;;;7.40;2.65;;;;;;;;;;5079290;28;20070;-84
2022/01/07 13:51:08;;;;;;;8.27;3.25;;;;;;;;;;5061749;28;20032;-84
2022/01/07 13:53:34;;;;;;;8.23;3.72;;;;;;;;;;5061140;28;20021;-84
2022/01/07 13:56:05;;;;;;;6.60;2.92;;;;;;;;;;5060847;28;20017;-85
2022/01/07 13:58:31;;;;;;;9.95;2.95;;;;;;;;;;5061489;28;20021;-84
2022/01/07 14:01:04;;;;;;;7.15;3.30;;;;;;;;;;5061233;28;20023;-84
2022/01/07 14:03:47;;;;;;;7.07;3.20;;;;;;;;;;5061895;28;20055;-83
2022/01/07 14:06:18;;;;;;;7.95;3.65;;;;;;;;;;5061029;28;20005;-84
2022/01/07 14:08:47;;;;;;;8.40;3.08;;;;;;;;;;5078606;28;20021;-84
2022/01/07 14:11:16;;;;;;;10.25;2.90;;;;;;;;;;5078123;28;20009;-84
2022/01/07 14:13:43;;;;;;;6.78;3.53;;;;;;;;;;5060463;28;20002;-83
2022/01/07 14:16:20;;;;;;;13.38;3.85;;;;;;;;;;5061303;28;20028;-84
2022/01/07 14:18:57;;;;;;;10.82;3.88;;;;;;;;;;5078908;28;20017;-83
2022/01/07 14:21:25;;;;;;;8.68;3.20;;;;;;;;;;5061618;28;20068;-84
2022/01/07 14:23:55;;;;;;;10.05;3.65;;;;;;;;;;5059685;28;20161;-84
2022/01/07 14:26:21;;;;;;;4.88;2.80;;;;;;;;;;5061332;28;20017;-83
2022/01/07 14:28:48;;;;;;;7.18;3.00;;;;;;;;;;5077633;28;20032;-84
2022/01/07 14:31:17;;;;;;;6.68;3.25;;;;;;;;;;5078400;28;20108;-84
2022/01/07 14:33:43;;;;;;;;;;;;;;;;;;5061492;28;20005;-84
2022/01/07 14:36:11;;;;;;;9.25;3.00;;;;;;;;;;5060142;28;19920;-84
2022/01/07 14:38:37;;;;;;;10.80;3.10;;;;;;;;;;5060892;28;20014;-84
2022/01/07 14:41:03;;;;;;;7.13;3.00;;;;;;;;;;5061078;28;20035;-83
2022/01/07 14:43:30;;;;;;;6.95;3.00;;;;;;;;;;5078290;28;20056;-84
2022/01/07 14:45:55;;;;;;;10.57;4.05;;;;;;;;;;5060864;28;20016;-84
2022/01/07 14:48:24;;;;;;;8.93;3.63;;;;;;;;;;5078651;28;20118;-84
2022/01/07 14:50:53;;;;;;;7.22;3.05;;;;;;;;;;5060734;28;20006;-85
2022/01/07 14:53:19;;;;;;;7.70;3.63;;;;;;;;;;5060766;28;20069;-83
2022/01/07 14:55:47;;;;;;;8.07;3.53;;;;;;;;;;5059753;28;20009;-84
2022/01/07 14:58:15;;;;;;;8.80;4.03;;;;;;;;;;5059173;28;20100;-83
2022/01/07 15:00:43;;;;;;;12.40;4.55;;;;;;;;;;5077027;28;20013;-84
2022/01/07 15:03:09;;;;;;;8.97;3.83;;;;;;;;;;5058929;28;20021;-83
2022/01/07 15:05:35;;;;;;;9.07;3.90;;;;;;;;;;5060416;28;20019;-82
2022/01/07 15:08:01;;;;;;;10.13;4.43;;;;;;;;;;5093162;22;20045;-84
2022/01/07 15:10:29;;;;;;;6.82;3.25;;;;;;;;;;5058161;28;20029;-86
2022/01/07 15:12:57;;;;;;;11.85;4.80;;;;;;;;;;5075555;28;20017;-87
2022/01/07 15:18:10;;;;;;;9.93;3.90;;;;;;;;;;5522181;22;20048;-84
2022/01/07 15:20:36;;;;;;;14.48;4.32;;;;;;;;;;5039599;28;20049;-85
2022/01/07 15:23:07;;;;;;;9.23;3.72;;;;;;;;;;5040130;28;20036;-85
2022/01/07 15:25:41;;;;;;;9.05;4.43;;;;;;;;;;5039766;28;20005;-85
2022/01/07 15:28:09;;;;;;;8.20;4.18;;;;;;;;;;5040314;28;20017;-84
2022/01/07 15:30:35;;;;;;;7.95;4.30;;;;;;;;;;5057246;28;19994;-84
2022/01/07 15:33:03;;;;;;;7.40;3.70;;;;;;;;;;5040206;28;20020;-85
2022/01/07 15:35:32;;;;;;;10.25;5.03;;;;;;;;;;5292291;22;20055;-86
2022/01/07 15:38:00;;;;;;;9.98;4.05;;;;;;;;;;5138439;22;20045;-85
2022/01/07 15:40:27;;;;;;;9.13;4.28;;;;;;;;;;5077997;28;20072;-85
2022/01/07 15:42:54;;;;;;;12.95;4.20;;;;;;;;;;5262698;22;20095;-86
2022/01/07 15:45:20;;;;;;;8.05;3.85;;;;;;;;;;5061447;28;20009;-86
2022/01/07 15:47:46;;;;;;;10.68;3.72;;;;;;;;;;5059745;28;20036;-86
2022/01/07 15:50:11;;;;;;;11.23;4.07;;;;;;;;;;5059556;28;20002;-86
2022/01/07 15:52:38;;;;;;;6.72;3.85;;;;;;;;;;5059815;28;20096;-85
2022/01/07 15:55:09;;;;;;;10.63;4.18;;;;;;;;;;5059455;28;20036;-86
2022/01/07 15:57:49;;;;;;;11.88;3.95;;;;;;;;;;5059797;28;20041;-85
2022/01/07 16:00:16;;;;;;;10.40;4.53;;;;;;;;;;5288219;22;20088;-85
2022/01/07 16:02:44;;;;;;;7.30;3.72;;;;;;;;;;5425903;22;20037;-86
2022/01/07 16:05:10;;;;;;;9.02;3.97;;;;;;;;;;5061090;28;20025;-83
2022/01/07 16:07:36;;;;;;;8.52;3.42;;;;;;;;;;5231030;22;20029;-85
2022/01/07 16:10:05;;;;;;;10.98;4.13;;;;;;;;;;5075364;28;20028;-83
2022/01/07 16:12:34;;;;;;;7.20;3.38;;;;;;;;;;5074966;28;20007;-83